createdAt,value
2018-08-23T00:01:37.034Z,19.30
2018-08-23T00:04:07.807Z,16.10
2018-08-23T00:06:38.677Z,19.27
2018-08-23T00:09:08.203Z,20.23
2018-08-23T00:11:42.636Z,15.13
2018-08-23T00:14:11.728Z,15.77
2018-08-23T00:16:44.208Z,17.73
2018-08-23T00:19:13.592Z,16.57
2018-08-23T00:21:44.600Z,15.70
2018-08-23T00:24:21.895Z,16.63
2018-08-23T00:26:58.825Z,16.33
2018-08-23T00:29:31.259Z,16.33
2018-08-23T00:32:08.289Z,19.47
2018-08-23T00:34:39.384Z,16.13
2018-08-23T00:37:09.165Z,16.27
2018-08-23T00:39:38.268Z,16.97
2018-08-23T00:42:10.631Z,16.30
2018-08-23T00:44:54.278Z,23.00
2018-08-23T00:47:26.749Z,16.57
2018-08-23T00:49:55.856Z,16.43
2018-08-23T00:52:44.644Z,17.37
2018-08-23T00:55:26.489Z,18.90
2018-08-23T00:57:55.596Z,19.20
2018-08-23T01:00:25.905Z,18.77
2018-08-23T01:03:02.596Z,17.43
2018-08-23T01:05:36.956Z,16.70
2018-08-23T01:08:07.145Z,16.23
2018-08-23T01:10:38.214Z,16.90
2018-08-23T01:13:07.312Z,21.63
2018-08-23T01:15:36.434Z,16.17
2018-08-23T01:18:14.245Z,18.03
2018-08-23T01:20:44.385Z,20.27
2018-08-23T01:23:13.745Z,18.67
2018-08-23T01:25:43.920Z,19.00
2018-08-23T01:28:13.056Z,28.53
2018-08-23T01:30:42.605Z,17.23
2018-08-23T01:33:15.788Z,18.37
2018-08-23T01:35:46.066Z,17.97
2018-08-23T01:38:15.820Z,19.90
2018-08-23T01:40:45.293Z,16.53
2018-08-23T01:43:14.410Z,17.10
2018-08-23T01:45:43.571Z,17.00
2018-08-23T01:48:12.692Z,15.37
2018-08-23T01:50:41.896Z,16.47
2018-08-23T01:53:10.988Z,16.80
2018-08-23T01:55:40.096Z,17.33
2018-08-23T01:58:09.248Z,16.30
2018-08-23T02:00:38.348Z,21.70
2018-08-23T02:03:07.568Z,19.90
2018-08-23T02:05:38.709Z,22.10
2018-08-23T02:08:07.819Z,16.47
2018-08-23T02:10:36.931Z,17.97
2018-08-23T02:13:10.709Z,15.70
2018-08-23T02:15:45.237Z,15.07
2018-08-23T02:18:14.383Z,18.43
2018-08-23T02:20:43.488Z,14.53
2018-08-23T02:23:12.705Z,15.30
2018-08-23T02:25:41.833Z,20.23
2018-08-23T02:28:12.129Z,16.33
2018-08-23T02:30:48.420Z,15.70
2018-08-23T02:33:17.722Z,14.90
2018-08-23T02:36:29.968Z,13.70
2018-08-23T02:39:04.571Z,12.90
2018-08-23T02:41:33.734Z,16.93
2018-08-23T02:44:02.932Z,13.43
2018-08-23T02:46:32.255Z,14.30
2018-08-23T02:49:01.365Z,16.43
2018-08-23T02:51:38.958Z,15.43
2018-08-23T02:54:11.101Z,14.43
2018-08-23T02:56:40.921Z,14.40
2018-08-23T02:59:10.048Z,14.70
2018-08-23T03:01:41.772Z,13.37
2018-08-23T03:04:42.179Z,13.67
2018-08-23T03:07:11.334Z,12.93
2018-08-23T03:09:44.144Z,12.43
2018-08-23T03:12:16.558Z,15.60
2018-08-23T03:14:45.669Z,13.10
2018-08-23T03:17:24.884Z,13.80
2018-08-23T03:20:10.067Z,12.03
2018-08-23T03:22:39.676Z,12.90
2018-08-23T03:25:12.445Z,14.13
2018-08-23T03:27:41.600Z,12.03
2018-08-23T03:30:11.918Z,11.87
2018-08-23T03:32:41.028Z,13.40
2018-08-23T03:35:10.261Z,13.03
2018-08-23T03:37:39.400Z,14.97
2018-08-23T03:40:09.946Z,15.37
2018-08-23T03:42:39.105Z,14.37
2018-08-23T03:45:13.277Z,12.23
2018-08-23T03:47:47.784Z,11.30
2018-08-23T03:50:16.997Z,12.73
2018-08-23T03:52:50.271Z,11.97
2018-08-23T03:55:21.543Z,13.53
2018-08-23T03:57:50.783Z,12.90
2018-08-23T04:00:26.028Z,13.33
2018-08-23T04:02:55.363Z,11.50
2018-08-23T04:05:24.539Z,10.23
2018-08-23T04:07:53.635Z,12.83
2018-08-23T04:10:22.744Z,12.30
2018-08-23T04:12:51.854Z,11.90
2018-08-23T04:15:28.932Z,12.90
2018-08-23T04:17:57.988Z,12.13
2018-08-23T04:20:27.116Z,10.87
2018-08-23T04:22:56.384Z,11.87
2018-08-23T04:25:25.480Z,15.30
2018-08-23T04:27:54.576Z,12.00
2018-08-23T04:30:23.784Z,11.13
2018-08-23T04:32:52.964Z,10.97
2018-08-23T04:35:28.533Z,12.30
2018-08-23T04:37:57.877Z,11.37
2018-08-23T04:40:27.110Z,11.50
2018-08-23T04:42:56.306Z,11.00
2018-08-23T04:45:26.490Z,12.47
2018-08-23T04:48:01.016Z,11.23
2018-08-23T04:50:30.104Z,14.20
2018-08-23T04:52:59.259Z,14.53
2018-08-23T04:55:28.444Z,15.03
2018-08-23T04:57:58.253Z,11.27
2018-08-23T05:00:34.180Z,26.67
2018-08-23T05:03:03.301Z,13.03
2018-08-23T05:05:32.396Z,18.93
2018-08-23T05:08:01.506Z,11.73
2018-08-23T05:10:30.713Z,13.93
2018-08-23T05:12:59.884Z,14.57
2018-08-23T05:15:28.993Z,16.67
2018-08-23T05:17:58.092Z,11.10
2018-08-23T05:20:27.192Z,11.90
2018-08-23T05:23:01.817Z,14.80
2018-08-23T05:25:30.844Z,19.60
2018-08-23T05:28:11.152Z,14.80
2018-08-23T05:30:41.916Z,13.40
2018-08-23T05:33:14.957Z,14.23
2018-08-23T05:35:44.035Z,18.87
2018-08-23T05:38:13.537Z,18.23
2018-08-23T05:40:44.696Z,10.63
2018-08-23T05:43:15.011Z,10.20
2018-08-23T05:45:50.729Z,9.80
2018-08-23T05:48:36.488Z,10.20
2018-08-23T05:51:09.549Z,11.53
2018-08-23T05:53:41.965Z,12.17
2018-08-23T05:56:11.321Z,10.30
2018-08-23T05:58:40.535Z,10.33
2018-08-23T06:01:09.608Z,10.77
2018-08-23T06:03:39.172Z,10.30
2018-08-23T06:06:08.581Z,12.07
2018-08-23T06:08:40.765Z,9.10
2018-08-23T06:11:11.027Z,13.63
2018-08-23T06:13:40.519Z,10.20
2018-08-23T06:16:09.603Z,9.43
2018-08-23T06:18:38.747Z,17.10
2018-08-23T06:21:07.941Z,11.77
2018-08-23T06:23:58.592Z,14.30
2018-08-23T06:26:38.696Z,8.90
2018-08-23T06:29:08.691Z,8.73
2018-08-23T06:31:48.399Z,9.67
2018-08-23T06:34:17.550Z,9.60
2018-08-23T06:36:47.302Z,14.13
2018-08-23T06:39:16.413Z,10.60
2018-08-23T06:41:45.572Z,9.60
2018-08-23T06:44:14.733Z,17.87
2018-08-23T06:46:43.932Z,12.67
2018-08-23T06:49:13.069Z,11.20
2018-08-23T06:51:42.225Z,9.03
2018-08-23T06:54:11.601Z,8.77
2018-08-23T06:56:40.783Z,9.17
2018-08-23T06:59:10.261Z,12.40
2018-08-23T07:01:44.628Z,13.80
2018-08-23T07:04:15.056Z,8.53
2018-08-23T07:06:44.244Z,9.07
2018-08-23T07:09:14.862Z,9.20
2018-08-23T07:11:44.176Z,8.00
2018-08-23T07:14:17.674Z,9.23
2018-08-23T07:16:48.244Z,8.17
2018-08-23T07:19:27.228Z,8.73
2018-08-23T07:21:56.807Z,6.53
2018-08-23T07:24:38.484Z,7.77
2018-08-23T07:27:09.274Z,6.60
2018-08-23T07:29:38.356Z,7.83
2018-08-23T07:32:08.759Z,7.23
2018-08-23T07:34:37.908Z,7.63
2018-08-23T07:37:12.457Z,6.73
2018-08-23T07:39:45.805Z,7.10
2018-08-23T07:42:14.963Z,6.50
2018-08-23T07:44:44.125Z,6.37
2018-08-23T07:47:13.461Z,6.70
2018-08-23T07:49:42.629Z,6.90
2018-08-23T07:52:11.716Z,6.37
2018-08-23T07:54:40.778Z,6.33
2018-08-23T07:57:09.869Z,7.50
2018-08-23T07:59:39.104Z,6.57
2018-08-23T08:02:11.028Z,8.73
2018-08-23T08:04:40.156Z,9.67
2018-08-23T08:07:11.679Z,7.40
2018-08-23T08:09:40.813Z,6.53
2018-08-23T08:12:14.103Z,6.00
2018-08-23T08:14:43.217Z,6.83
2018-08-23T08:17:17.828Z,6.60
2018-08-23T08:19:58.533Z,7.23
2018-08-23T08:22:27.604Z,6.40
2018-08-23T08:25:05.062Z,6.27
2018-08-23T08:27:34.175Z,6.80
2018-08-23T08:30:03.283Z,7.40
2018-08-23T08:32:32.469Z,6.80
2018-08-23T08:35:01.573Z,7.03
2018-08-23T08:37:30.657Z,6.77
2018-08-23T08:39:59.789Z,7.80
2018-08-23T08:42:30.529Z,6.33
2018-08-23T08:45:08.708Z,7.90
2018-08-23T08:47:38.204Z,10.97
2018-08-23T08:50:07.321Z,5.47
2018-08-23T08:52:36.536Z,6.90
2018-08-23T08:55:08.709Z,7.10
2018-08-23T08:57:45.187Z,7.37
2018-08-23T09:00:14.209Z,6.23
2018-08-23T09:02:43.308Z,6.93
2018-08-23T09:05:12.582Z,6.70
2018-08-23T09:07:43.764Z,5.80
2018-08-23T09:10:12.879Z,6.50
2018-08-23T09:12:48.522Z,5.70
2018-08-23T09:15:17.689Z,7.90
2018-08-23T09:17:47.414Z,8.60
2018-08-23T09:20:18.660Z,8.90
2018-08-23T09:22:55.692Z,6.00
2018-08-23T09:25:28.365Z,7.00
2018-08-23T09:27:57.512Z,6.73
2018-08-23T09:30:28.834Z,9.00
2018-08-23T09:32:58.327Z,7.17
2018-08-23T09:35:32.618Z,7.80
2018-08-23T09:38:11.605Z,6.50
2018-08-23T09:40:40.678Z,6.00
2018-08-23T09:43:09.845Z,6.30
2018-08-23T09:45:39.533Z,6.73
2018-08-23T09:48:09.072Z,7.27
2018-08-23T09:50:38.235Z,8.70
2018-08-23T09:53:12.885Z,6.90
2018-08-23T09:55:42.223Z,8.43
2018-08-23T09:58:16.677Z,6.63
2018-08-23T10:00:51.113Z,6.40
2018-08-23T10:03:25.690Z,7.20
2018-08-23T10:06:00.008Z,7.27
2018-08-23T10:08:34.430Z,6.70
2018-08-23T10:11:09.002Z,11.27
2018-08-23T10:14:42.657Z,9.57
2018-08-23T10:17:17.120Z,5.93
2018-08-23T10:19:51.690Z,7.60
2018-08-23T10:22:26.163Z,7.07
2018-08-23T10:24:55.357Z,7.97
2018-08-23T10:27:24.517Z,9.63
2018-08-23T10:29:53.630Z,7.97
2018-08-23T10:32:22.802Z,9.47
2018-08-23T10:34:51.825Z,8.73
2018-08-23T10:37:20.910Z,7.20
2018-08-23T10:39:50.026Z,6.57
2018-08-23T10:42:19.220Z,8.70
2018-08-23T10:44:48.406Z,8.50
2018-08-23T10:47:22.976Z,10.30
2018-08-23T10:49:52.078Z,10.60
2018-08-23T10:52:21.160Z,10.50
2018-08-23T10:54:50.337Z,8.13
2018-08-23T10:57:19.442Z,11.57
2018-08-23T10:59:48.589Z,6.57
2018-08-23T11:02:17.702Z,15.60
2018-08-23T11:04:46.888Z,8.17
2018-08-23T11:07:16.081Z,10.70
2018-08-23T11:09:50.506Z,7.67
2018-08-23T11:12:25.044Z,14.83
2018-08-23T11:14:54.223Z,7.57
2018-08-23T11:17:28.648Z,7.20
2018-08-23T11:20:03.049Z,7.30
2018-08-23T11:22:38.158Z,11.27
2018-08-23T11:25:07.290Z,9.30
2018-08-23T11:27:36.395Z,7.37
2018-08-23T11:30:05.500Z,7.87
2018-08-23T11:32:34.592Z,8.83
2018-08-23T11:35:03.767Z,9.70
2018-08-23T11:37:32.891Z,8.13
2018-08-23T11:40:02.068Z,8.13
2018-08-23T11:42:31.176Z,7.80
2018-08-23T11:45:00.334Z,11.43
2018-08-23T11:47:29.468Z,7.67
2018-08-23T11:49:58.564Z,8.20
2018-08-23T11:52:27.676Z,7.40
2018-08-23T11:54:56.785Z,8.63
2018-08-23T11:57:26.168Z,11.60
2018-08-23T11:59:55.250Z,7.83
2018-08-23T12:02:24.352Z,7.57
2018-08-23T12:04:53.407Z,8.17
2018-08-23T12:07:22.541Z,9.10
2018-08-23T12:09:51.659Z,8.00
2018-08-23T12:12:21.169Z,9.17
2018-08-23T12:14:54.859Z,9.18
2018-08-23T12:17:24.280Z,15.13
2018-08-23T12:19:53.427Z,7.25
2018-08-23T12:22:26.702Z,8.07
2018-08-23T12:24:55.855Z,7.60
2018-08-23T12:27:25.013Z,7.78
2018-08-23T12:29:54.096Z,7.87
2018-08-23T12:32:26.124Z,8.18
2018-08-23T12:34:55.408Z,8.65
2018-08-23T12:37:30.026Z,8.50
2018-08-23T12:40:04.399Z,7.90
2018-08-23T12:42:38.848Z,7.67
2018-08-23T12:45:07.990Z,8.05
2018-08-23T12:47:37.130Z,6.55
2018-08-23T12:50:06.896Z,6.83
2018-08-23T12:52:35.976Z,7.45
2018-08-23T12:55:05.044Z,6.90
2018-08-23T12:57:34.155Z,8.78
2018-08-23T13:00:03.363Z,8.08
2018-08-23T13:02:32.525Z,12.10
2018-08-23T13:05:01.514Z,7.42
2018-08-23T13:07:30.643Z,8.48
2018-08-23T13:09:59.815Z,13.58
2018-08-23T13:12:28.903Z,7.22
2018-08-23T13:14:58.093Z,8.10
2018-08-23T13:17:27.351Z,8.68
2018-08-23T13:19:56.392Z,9.13
2018-08-23T13:22:30.916Z,8.55
2018-08-23T13:25:04.953Z,8.63
2018-08-23T13:27:34.148Z,9.25
2018-08-23T13:30:03.461Z,14.95
2018-08-23T13:32:32.496Z,9.88
2018-08-23T13:35:01.653Z,8.20
2018-08-23T13:37:30.817Z,8.58
2018-08-23T13:39:59.884Z,7.97
2018-08-23T13:42:29.075Z,8.05
2018-08-23T13:44:58.222Z,7.10
2018-08-23T13:47:27.304Z,9.95
2018-08-23T13:49:56.453Z,6.42
2018-08-23T13:52:25.586Z,7.28
2018-08-23T13:54:54.681Z,7.83
2018-08-23T13:57:23.772Z,8.55
2018-08-23T13:59:52.857Z,10.23
2018-08-23T14:02:22.142Z,8.30
2018-08-23T14:04:51.190Z,6.97
2018-08-23T14:07:20.375Z,8.78
2018-08-23T14:09:49.464Z,12.53
2018-08-23T14:12:18.564Z,7.28
2018-08-23T14:14:47.676Z,9.53
2018-08-23T14:17:16.840Z,7.45
2018-08-23T14:19:45.951Z,7.67
2018-08-23T14:22:15.040Z,9.53
2018-08-23T14:24:44.149Z,9.95
2018-08-23T14:27:13.284Z,7.42
2018-08-23T14:29:42.324Z,7.72
2018-08-23T14:32:11.508Z,8.98
2018-08-23T14:34:40.612Z,9.95
2018-08-23T14:37:09.733Z,8.58
2018-08-23T14:39:38.933Z,10.35
2018-08-23T14:42:08.033Z,9.33
2018-08-23T14:44:37.295Z,10.40
2018-08-23T14:47:11.685Z,6.22
2018-08-23T14:49:40.769Z,5.28
2018-08-23T14:52:09.911Z,5.80
2018-08-23T14:54:41.659Z,6.62
2018-08-23T14:57:16.292Z,12.80
2018-08-23T14:59:45.672Z,6.33
2018-08-23T15:02:14.766Z,6.33
2018-08-23T15:04:47.227Z,11.05
2018-08-23T15:07:16.869Z,6.28
2018-08-23T15:09:46.164Z,5.60
2018-08-23T15:12:15.292Z,6.37
2018-08-23T15:14:44.456Z,6.33
2018-08-23T15:17:13.632Z,7.10
2018-08-23T15:19:42.690Z,7.00
2018-08-23T15:22:11.764Z,9.00
2018-08-23T15:24:40.953Z,7.10
2018-08-23T15:27:10.195Z,10.03
2018-08-23T15:29:40.260Z,13.40
2018-08-23T15:32:09.368Z,11.20
2018-08-23T15:34:38.518Z,9.93
2018-08-23T15:37:07.597Z,20.63
2018-08-23T15:39:36.806Z,49.53
2018-08-23T15:42:05.934Z,9.17
2018-08-23T15:44:35.111Z,10.07
2018-08-23T15:47:04.258Z,7.30
2018-08-23T15:49:33.348Z,6.77
2018-08-23T15:52:02.525Z,7.73
2018-08-23T15:54:31.624Z,6.87
2018-08-23T15:57:00.736Z,5.50
2018-08-23T15:59:29.920Z,5.37
2018-08-23T16:01:58.999Z,7.47
2018-08-23T16:04:28.139Z,4.80
2018-08-23T16:06:57.232Z,5.00
2018-08-23T16:09:26.328Z,5.77
2018-08-23T16:11:55.425Z,5.83
2018-08-23T16:14:24.501Z,10.70
2018-08-23T16:16:58.952Z,11.00
2018-08-23T16:19:33.329Z,9.33
2018-08-23T16:22:02.421Z,9.97
2018-08-23T16:24:31.559Z,5.77
2018-08-23T16:27:02.633Z,6.17
2018-08-23T16:29:31.850Z,11.93
2018-08-23T16:32:01.140Z,8.33
2018-08-23T16:34:30.258Z,6.23
2018-08-23T16:36:59.464Z,7.37
2018-08-23T16:39:28.677Z,11.10
2018-08-23T16:41:57.861Z,6.20
2018-08-23T16:44:27.121Z,6.90
2018-08-23T16:46:56.151Z,7.77
2018-08-23T16:49:25.387Z,6.63
2018-08-23T16:51:54.448Z,6.13
2018-08-23T16:54:23.575Z,6.20
2018-08-23T16:56:52.682Z,6.40
2018-08-23T16:59:21.825Z,8.07
2018-08-23T17:01:51.019Z,8.17
2018-08-23T17:04:20.108Z,6.10
2018-08-23T17:06:49.320Z,6.43
2018-08-23T17:09:18.423Z,10.23
2018-08-23T17:11:47.606Z,10.33
2018-08-23T17:14:16.836Z,6.27
2018-08-23T17:16:51.345Z,6.23
2018-08-23T17:19:20.484Z,7.03
2018-08-23T17:21:49.620Z,7.97
2018-08-23T17:24:18.835Z,6.90
2018-08-23T17:26:47.908Z,7.30
2018-08-23T17:29:17.100Z,7.20
2018-08-23T17:31:46.398Z,8.97
2018-08-23T17:34:15.506Z,10.23
2018-08-23T17:36:44.586Z,7.37
2018-08-23T17:39:13.710Z,6.37
2018-08-23T17:41:42.847Z,5.47
2018-08-23T17:44:12.119Z,5.60
2018-08-23T17:46:42.135Z,8.47
2018-08-23T17:49:11.777Z,5.10
2018-08-23T17:51:41.228Z,5.30
2018-08-23T17:54:10.326Z,4.50
2018-08-23T17:56:39.425Z,5.60
2018-08-23T17:59:08.638Z,4.10
2018-08-23T18:01:37.813Z,5.13
2018-08-23T18:04:07.017Z,3.83
2018-08-23T18:06:36.297Z,5.00
2018-08-23T18:09:08.403Z,7.17
2018-08-23T18:11:37.777Z,5.37
2018-08-23T18:14:07.135Z,3.87
2018-08-23T18:16:41.659Z,4.60
2018-08-23T18:19:11.172Z,6.90
2018-08-23T18:21:41.496Z,5.10
2018-08-23T18:24:10.683Z,8.70
2018-08-23T18:26:39.813Z,5.60
2018-08-23T18:29:08.914Z,7.80
2018-08-23T18:31:38.003Z,6.20
2018-08-23T18:34:07.103Z,5.50
2018-08-23T18:36:36.197Z,8.97
2018-08-23T18:39:07.898Z,6.23
2018-08-23T18:41:37.064Z,4.77
2018-08-23T18:44:06.520Z,4.67
2018-08-23T18:46:35.728Z,6.43
2018-08-23T18:49:04.804Z,4.97
2018-08-23T18:51:33.901Z,8.80
2018-08-23T18:54:03.111Z,5.10
2018-08-23T18:56:32.145Z,5.80
2018-08-23T18:59:01.211Z,5.43
2018-08-23T19:01:30.429Z,4.67
2018-08-23T19:03:59.576Z,6.90
2018-08-23T19:06:35.314Z,5.23
2018-08-23T19:09:08.550Z,9.27
2018-08-23T19:11:37.772Z,5.53
2018-08-23T19:14:06.873Z,5.63
2018-08-23T19:16:41.295Z,5.50
2018-08-23T19:19:10.473Z,5.50
2018-08-23T19:21:39.578Z,5.67
2018-08-23T19:24:08.675Z,6.70
2018-08-23T19:26:37.774Z,6.10
2018-08-23T19:29:07.043Z,6.30
2018-08-23T19:31:36.182Z,5.70
2018-08-23T19:34:05.437Z,6.17
2018-08-23T19:36:34.544Z,6.10
2018-08-23T19:39:04.272Z,6.07
2018-08-23T19:41:33.444Z,5.67
2018-08-23T19:44:02.541Z,4.90
2018-08-23T19:46:37.018Z,6.53
2018-08-23T19:49:11.545Z,5.37
2018-08-23T19:51:40.684Z,5.10
2018-08-23T19:54:09.795Z,6.20
2018-08-23T19:56:38.984Z,5.23
2018-08-23T19:59:08.088Z,6.80
2018-08-23T20:01:37.320Z,5.30
2018-08-23T20:04:06.468Z,5.80
2018-08-23T20:06:35.660Z,5.73
2018-08-23T20:09:07.220Z,5.40
2018-08-23T20:11:36.336Z,4.70
2018-08-23T20:14:05.434Z,7.70
2018-08-23T20:16:34.637Z,6.83
2018-08-23T20:19:03.827Z,6.37
2018-08-23T20:21:32.914Z,5.20
2018-08-23T20:24:02.093Z,6.27
2018-08-23T20:26:31.213Z,4.80
2018-08-23T20:29:00.324Z,6.93
2018-08-23T20:31:29.500Z,5.93
2018-08-23T20:33:58.695Z,6.03
2018-08-23T20:36:27.896Z,5.30
2018-08-23T20:38:57.021Z,7.43
2018-08-23T20:41:26.182Z,4.83
2018-08-23T20:43:55.371Z,5.17
2018-08-23T20:46:24.645Z,4.43
2018-08-23T20:48:53.785Z,4.40
2018-08-23T20:51:22.865Z,4.40
2018-08-23T20:53:51.963Z,4.97
2018-08-23T20:56:21.163Z,3.93
2018-08-23T20:58:50.347Z,5.00
2018-08-23T21:01:19.461Z,4.70
2018-08-23T21:03:48.613Z,5.60
2018-08-23T21:06:17.738Z,6.33
2018-08-23T21:08:46.948Z,4.80
2018-08-23T21:11:16.157Z,6.87
2018-08-23T21:13:45.333Z,5.63
2018-08-23T21:16:14.428Z,4.30
2018-08-23T21:18:43.638Z,4.50
2018-08-23T21:21:12.845Z,5.80
2018-08-23T21:23:42.053Z,5.13
2018-08-23T21:26:11.845Z,8.83
2018-08-23T21:28:40.937Z,5.20
2018-08-23T21:31:10.036Z,5.40
2018-08-23T21:33:39.236Z,5.60
2018-08-23T21:36:08.411Z,4.47
2018-08-23T21:38:37.508Z,4.57
2018-08-23T21:41:06.620Z,5.13
2018-08-23T21:43:35.808Z,5.57
2018-08-23T21:46:04.907Z,5.10
2018-08-23T21:48:34.090Z,5.37
2018-08-23T21:51:03.195Z,5.57
2018-08-23T21:53:32.430Z,4.60
2018-08-23T21:56:01.620Z,8.23
2018-08-23T21:58:30.786Z,4.90
2018-08-23T22:01:05.170Z,4.43
2018-08-23T22:03:34.321Z,4.43
2018-08-23T22:06:03.622Z,7.17
2018-08-23T22:08:33.360Z,6.20
2018-08-23T22:11:02.688Z,4.03
2018-08-23T22:13:32.068Z,4.97
2018-08-23T22:16:01.233Z,4.80
2018-08-23T22:18:30.614Z,4.97
2018-08-23T22:20:59.722Z,6.80
2018-08-23T22:23:28.919Z,4.77
2018-08-23T22:25:58.038Z,5.47
2018-08-23T22:28:27.191Z,5.07
2018-08-23T22:30:56.363Z,5.10
2018-08-23T22:33:25.469Z,5.27
2018-08-23T22:35:54.611Z,5.23
2018-08-23T22:38:23.883Z,5.03
2018-08-23T22:40:52.975Z,4.70
2018-08-23T22:43:22.081Z,5.00
2018-08-23T22:45:51.319Z,5.07
2018-08-23T22:48:20.391Z,5.00
2018-08-23T22:50:49.563Z,4.93
2018-08-23T22:53:18.701Z,5.43
2018-08-23T22:55:47.880Z,5.43
2018-08-23T22:58:16.949Z,9.33
2018-08-23T23:00:46.159Z,5.47
2018-08-23T23:03:20.559Z,4.60
2018-08-23T23:05:49.663Z,4.73
2018-08-23T23:08:18.755Z,4.43
2018-08-23T23:10:47.846Z,4.07
2018-08-23T23:13:17.059Z,6.07
2018-08-23T23:15:46.237Z,4.70
2018-08-23T23:18:15.446Z,5.10
2018-08-23T23:20:44.548Z,4.40
2018-08-23T23:23:13.741Z,4.33
2018-08-23T23:25:42.926Z,4.57
2018-08-23T23:28:12.040Z,5.00
2018-08-23T23:30:41.225Z,4.73
2018-08-23T23:33:10.320Z,4.43
2018-08-23T23:35:39.426Z,4.30
2018-08-23T23:38:08.535Z,5.10
2018-08-23T23:40:37.716Z,4.83
2018-08-23T23:43:07.044Z,3.83
2018-08-23T23:45:36.214Z,5.33
2018-08-23T23:48:05.348Z,4.63
2018-08-23T23:50:34.536Z,4.40
2018-08-23T23:53:03.616Z,4.87
2018-08-23T23:55:32.699Z,4.77
2018-08-23T23:58:01.804Z,4.83
